This is the latest recevied weather packets stored in our database for station/object DB0WV-6. If no packets are shown the sender has not sent any weather packets the latest 10 day(s).
| Time | Temp. | Humidity | Pressure | Rain* | Wind** | Luminosity | Snow |
|---|---|---|---|---|---|---|---|
| 1777656014 | 17.78° C | 32% | 1020.9 hPa | 0 mm | - | - | - |
| 1777654834 | 18.33° C | 31% | 1021 hPa | 0 mm | - | - | - |
| 1777648234 | 21.11° C | 24% | 1021.9 hPa | 0 mm | - | - | - |
| 1777646414 | 20° C | 26% | 1022 hPa | 0 mm | - | - | - |
| 1777644014 | 20.56° C | 25% | 1022.4 hPa | 0 mm | - | - | - |
| 1777643437 | 20° C | 28% | 1022.4 hPa | 0 mm | - | - | - |
| 1777639814 | 18.33° C | 30% | 1022.9 hPa | 0 mm | - | - | - |
| 1777638014 | 17.78° C | 31% | 1022.9 hPa | 0 mm | - | - | - |
| 1777636235 | 16.67° C | 36% | 1022.9 hPa | 0 mm | - | - | - |
| 1777633836 | 16.67° C | 38% | 1023.4 hPa | 0 mm | - | - | - |
| 1777633216 | 17.22° C | 36% | 1023.5 hPa | 0 mm | - | - | - |
| 1777631415 | 16.67° C | 38% | 1023.7 hPa | 0 mm | - | - | - |
| 1777630835 | 16.67° C | 40% | 1023.7 hPa | 0 mm | - | - | - |
| 1777627216 | 13.89° C | 45% | 1023.4 hPa | 0 mm | - | - | - |
| 1777624815 | 11.67° C | 48% | 1023.2 hPa | 0 mm | - | - | - |
| 1777623015 | 10.56° C | 48% | 1023.1 hPa | 0 mm | - | - | - |
| 1777621815 | 10° C | 48% | 1023 hPa | 0 mm | - | - | - |
| 1777620016 | 7.78° C | 53% | 1022.7 hPa | 0 mm | - | - | - |
| 1777618215 | 6.11° C | 57% | 1022.4 hPa | 0 mm | - | - | - |
| 1777616415 | 5° C | 57% | 1022.2 hPa | 0 mm | - | - | - |
| 1777612816 | 3.89° C | 58% | 1021.9 hPa | 0 mm | - | - | - |
| 1777609815 | 2.78° C | 59% | 1021.3 hPa | 0 mm | - | - | - |
| 1777606816 | 3.33° C | 55% | 1021.3 hPa | 0 mm | - | - | - |
| 1777605015 | 3.33° C | 54% | 1021.4 hPa | 0 mm | - | - | - |
| 1777603237 | 3.89° C | 51% | 1021.4 hPa | 0 mm | - | - | - |
* Rain latest hour (hover to see other rain measurements)
** Current wind speed in m/s (hover to see current wind gust speed)